createdAt,value
2023-02-02T00:01:17.909Z,11.68
2023-02-02T00:06:11.202Z,11.66
2023-02-02T00:11:06.357Z,11.54
2023-02-02T00:16:25.592Z,11.70
2023-02-02T00:21:18.165Z,11.66
2023-02-02T00:26:14.992Z,11.70
2023-02-02T00:31:09.075Z,11.68
2023-02-02T00:36:03.328Z,11.65
2023-02-02T00:41:13.386Z,11.70
2023-02-02T00:46:10.729Z,11.67
2023-02-02T00:51:03.759Z,11.63
2023-02-02T00:55:55.838Z,11.60
2023-02-02T01:00:47.265Z,11.58
2023-02-02T01:05:40.603Z,11.57
2023-02-02T01:10:31.718Z,11.55
2023-02-02T01:15:24.269Z,11.56
2023-02-02T01:20:22.329Z,11.59
2023-02-02T01:25:19.490Z,11.51
2023-02-02T01:30:22.804Z,11.56
2023-02-02T01:35:16.494Z,11.58
2023-02-02T01:40:11.549Z,11.61
2023-02-02T01:45:21.715Z,11.58
2023-02-02T01:50:20.327Z,11.54
2023-02-02T01:55:25.776Z,11.61
2023-02-02T02:00:27.546Z,11.52
2023-02-02T02:05:27.196Z,11.64
2023-02-02T02:10:19.657Z,11.51
2023-02-02T02:15:25.170Z,11.50
2023-02-02T02:21:07.678Z,11.60
2023-02-02T02:26:39.566Z,11.58
2023-02-02T02:32:04.201Z,11.64
2023-02-02T02:37:14.345Z,11.70
2023-02-02T02:42:13.331Z,11.63
2023-02-02T02:47:05.344Z,11.60
2023-02-02T02:52:00.253Z,11.65
2023-02-02T02:57:23.865Z,11.70
2023-02-02T03:02:34.166Z,11.66
2023-02-02T03:07:34.279Z,11.68
2023-02-02T03:12:25.880Z,11.69
2023-02-02T03:17:16.662Z,11.66
2023-02-02T03:22:10.564Z,11.64
2023-02-02T03:27:10.214Z,11.67
2023-02-02T03:32:01.611Z,11.76
2023-02-02T03:36:55.241Z,11.61
2023-02-02T03:41:54.488Z,11.59
2023-02-02T03:46:49.063Z,11.56
2023-02-02T03:51:40.699Z,11.51
2023-02-02T03:56:33.276Z,11.35
2023-02-02T04:01:33.106Z,11.66
2023-02-02T04:06:29.167Z,11.81
2023-02-02T04:11:22.842Z,11.47
2023-02-02T04:16:16.742Z,11.47
2023-02-02T04:21:13.915Z,11.67
2023-02-02T04:26:10.852Z,11.63
2023-02-02T04:31:04.248Z,11.70
2023-02-02T04:35:57.879Z,11.50
2023-02-02T04:40:53.268Z,11.77
2023-02-02T04:45:50.557Z,11.47
2023-02-02T04:50:41.710Z,11.64
2023-02-02T04:55:32.248Z,11.67
2023-02-02T05:00:27.262Z,11.65
2023-02-02T05:05:23.953Z,11.74
2023-02-02T05:10:18.200Z,11.78
2023-02-02T05:15:10.854Z,11.77
2023-02-02T05:20:04.656Z,11.71
2023-02-02T05:24:59.642Z,11.76
2023-02-02T05:29:53.593Z,11.77
2023-02-02T05:34:44.915Z,11.73
2023-02-02T05:39:38.376Z,11.70
2023-02-02T05:44:31.664Z,11.70
2023-02-02T05:49:22.932Z,11.73
2023-02-02T05:54:17.997Z,11.72
2023-02-02T05:59:10.340Z,11.70
2023-02-02T06:04:04.118Z,11.71
2023-02-02T06:08:55.189Z,11.67
2023-02-02T06:13:47.145Z,11.67
2023-02-02T06:18:39.199Z,11.65
2023-02-02T06:23:36.422Z,11.51
2023-02-02T06:28:27.749Z,11.59
2023-02-02T06:33:21.730Z,11.59
2023-02-02T06:38:13.571Z,11.73
2023-02-02T06:43:09.596Z,11.81
2023-02-02T06:48:05.938Z,11.88
2023-02-02T06:53:05.316Z,11.77
2023-02-02T06:58:01.681Z,11.86
2023-02-02T07:02:59.511Z,11.86
2023-02-02T07:07:52.551Z,11.81
2023-02-02T07:12:43.817Z,11.81
2023-02-02T07:17:36.425Z,11.79
2023-02-02T07:22:29.476Z,11.69
2023-02-02T07:27:19.463Z,11.75
2023-02-02T07:32:09.973Z,11.71
2023-02-02T07:37:02.012Z,11.82
2023-02-02T07:42:03.315Z,11.84
2023-02-02T07:47:02.839Z,11.77
2023-02-02T07:51:56.434Z,11.72
2023-02-02T07:56:47.607Z,11.79
2023-02-02T08:01:47.398Z,11.85
2023-02-02T08:06:43.179Z,11.96
2023-02-02T08:11:38.947Z,11.92
2023-02-02T08:16:30.423Z,11.95
2023-02-02T08:21:24.992Z,11.86
2023-02-02T08:26:20.657Z,11.95
2023-02-02T08:31:14.159Z,11.90
2023-02-02T08:36:07.965Z,12.03
2023-02-02T08:41:08.970Z,12.06
2023-02-02T08:46:05.519Z,12.09
2023-02-02T08:50:57.997Z,12.29
2023-02-02T08:55:49.342Z,12.25
2023-02-02T09:00:43.126Z,12.23
2023-02-02T09:05:38.975Z,12.34
2023-02-02T09:10:34.402Z,12.39
2023-02-02T09:15:26.510Z,12.41
2023-02-02T09:20:22.537Z,12.41
2023-02-02T09:25:17.252Z,12.44
2023-02-02T09:30:11.062Z,12.36
2023-02-02T09:35:05.710Z,12.40
2023-02-02T09:39:59.616Z,12.37
2023-02-02T09:45:05.641Z,12.30
2023-02-02T09:50:04.132Z,12.44
2023-02-02T09:55:01.761Z,12.60
2023-02-02T09:59:56.464Z,12.88
2023-02-02T10:04:52.573Z,13.41
2023-02-02T10:09:50.981Z,13.60
2023-02-02T10:14:52.122Z,13.63
2023-02-02T10:19:45.836Z,13.64
2023-02-02T10:24:40.687Z,13.62
2023-02-02T10:29:49.326Z,13.62
2023-02-02T10:35:12.611Z,13.67
2023-02-02T10:40:27.174Z,13.54
2023-02-02T10:45:22.187Z,13.58
2023-02-02T10:50:29.406Z,13.29
2023-02-02T10:55:30.387Z,13.62
2023-02-02T11:00:27.079Z,13.69
2023-02-02T11:05:41.767Z,13.71
2023-02-02T11:10:38.113Z,13.65
2023-02-02T11:15:34.105Z,13.51
2023-02-02T11:20:39.072Z,13.57
2023-02-02T11:25:34.306Z,13.60
2023-02-02T11:30:30.947Z,13.72
2023-02-02T11:35:35.291Z,13.61
2023-02-02T11:40:38.545Z,13.42
2023-02-02T11:45:36.820Z,12.80
2023-02-02T11:50:33.195Z,12.74
2023-02-02T11:55:30.725Z,12.70
2023-02-02T12:00:27.813Z,12.72
2023-02-02T12:05:39.098Z,12.80
2023-02-02T12:10:47.699Z,12.81
2023-02-02T12:15:57.703Z,12.76
2023-02-02T12:21:06.964Z,12.78
2023-02-02T12:26:23.628Z,12.57
2023-02-02T12:31:26.773Z,12.66
2023-02-02T12:36:30.527Z,12.64
2023-02-02T12:41:43.537Z,12.65
2023-02-02T12:47:00.491Z,12.65
2023-02-02T12:52:09.438Z,12.58
2023-02-02T12:57:12.097Z,12.51
2023-02-02T13:02:16.408Z,12.37
2023-02-02T13:07:39.017Z,12.40
2023-02-02T13:12:39.449Z,12.45
2023-02-02T13:17:37.042Z,12.32
2023-02-02T13:22:39.070Z,12.35
2023-02-02T13:27:33.839Z,12.32
2023-02-02T13:32:35.238Z,12.24
2023-02-02T13:37:42.322Z,12.22
2023-02-02T13:42:46.013Z,12.22
2023-02-02T13:47:44.090Z,12.12
2023-02-02T13:52:59.954Z,12.10
2023-02-02T13:58:27.377Z,12.07
2023-02-02T14:03:38.835Z,11.93
2023-02-02T14:08:34.619Z,11.89
2023-02-02T14:13:50.077Z,11.98
2023-02-02T14:18:57.595Z,12.02
2023-02-02T14:23:59.031Z,12.09
2023-02-02T14:28:56.049Z,12.03
2023-02-02T14:33:49.067Z,11.98
2023-02-02T14:39:07.145Z,12.01
2023-02-02T14:44:00.748Z,11.99
2023-02-02T14:49:08.893Z,11.99
2023-02-02T14:54:10.566Z,11.98
2023-02-02T14:59:05.278Z,11.94
2023-02-02T15:03:59.845Z,11.99
2023-02-02T15:09:11.752Z,12.02
2023-02-02T15:14:18.107Z,12.04
2023-02-02T15:19:18.821Z,12.03
2023-02-02T15:24:29.113Z,12.04
2023-02-02T15:29:31.700Z,12.03
2023-02-02T15:34:46.701Z,12.02
2023-02-02T15:39:43.027Z,12.02
2023-02-02T15:44:41.325Z,12.08
2023-02-02T15:49:35.633Z,12.14
2023-02-02T15:54:28.300Z,12.11
2023-02-02T15:59:26.562Z,12.17
2023-02-02T16:04:37.644Z,12.15
2023-02-02T16:09:35.792Z,12.08
2023-02-02T16:14:29.143Z,11.89
2023-02-02T16:19:26.796Z,12.11
2023-02-02T16:24:23.907Z,12.01
2023-02-02T16:29:20.269Z,12.04
2023-02-02T16:34:20.162Z,12.03
2023-02-02T16:39:20.654Z,12.02
2023-02-02T16:44:32.694Z,12.01
2023-02-02T16:49:27.260Z,11.91
2023-02-02T16:54:25.713Z,11.80
2023-02-02T16:59:26.535Z,11.86
2023-02-02T17:04:25.317Z,11.92
2023-02-02T17:09:35.103Z,11.96
2023-02-02T17:14:33.452Z,11.94
2023-02-02T17:19:31.316Z,11.89
2023-02-02T17:24:25.269Z,11.97
2023-02-02T17:29:18.177Z,11.98
2023-02-02T17:34:15.740Z,12.00
2023-02-02T17:39:09.991Z,11.95
2023-02-02T17:44:09.409Z,11.88
2023-02-02T17:49:03.362Z,11.93
2023-02-02T17:53:55.455Z,11.97
2023-02-02T17:58:51.178Z,11.96
2023-02-02T18:03:51.146Z,11.92
2023-02-02T18:08:47.034Z,11.87
2023-02-02T18:13:41.863Z,11.94
2023-02-02T18:18:35.846Z,11.81
2023-02-02T18:23:30.092Z,11.86
2023-02-02T18:28:22.159Z,11.91
2023-02-02T18:33:13.638Z,11.86
2023-02-02T18:38:03.816Z,11.84
2023-02-02T18:42:59.697Z,11.78
2023-02-02T18:47:50.824Z,11.76
2023-02-02T18:52:42.646Z,11.71
2023-02-02T18:57:34.358Z,11.68
2023-02-02T19:02:29.229Z,11.66
2023-02-02T19:07:35.596Z,11.66
2023-02-02T19:12:31.581Z,11.72
2023-02-02T19:17:32.490Z,11.68
2023-02-02T19:22:25.112Z,11.76
2023-02-02T19:27:22.817Z,11.71
2023-02-02T19:32:20.877Z,11.91
2023-02-02T19:37:26.263Z,11.92
2023-02-02T19:42:20.780Z,11.98
2023-02-02T19:47:26.781Z,11.99
2023-02-02T19:52:26.653Z,12.08
2023-02-02T19:57:25.898Z,12.06
2023-02-02T20:02:38.258Z,12.10
2023-02-02T20:07:37.401Z,12.08
2023-02-02T20:12:36.605Z,12.09
2023-02-02T20:17:34.499Z,12.03
2023-02-02T20:22:30.357Z,12.13
2023-02-02T20:27:29.222Z,12.07
2023-02-02T20:32:26.756Z,12.22
2023-02-02T20:37:26.740Z,12.19
2023-02-02T20:42:23.679Z,12.19
2023-02-02T20:47:16.543Z,12.25
2023-02-02T20:52:15.520Z,12.22
2023-02-02T20:57:11.235Z,12.22
2023-02-02T21:02:07.546Z,12.27
2023-02-02T21:07:03.701Z,12.18
2023-02-02T21:11:55.886Z,12.33
2023-02-02T21:16:47.426Z,12.33
2023-02-02T21:21:39.180Z,12.20
2023-02-02T21:26:34.936Z,12.28
2023-02-02T21:31:27.766Z,12.34
2023-02-02T21:36:35.215Z,12.23
2023-02-02T21:41:29.332Z,12.31
2023-02-02T21:46:28.501Z,12.33
2023-02-02T21:51:31.269Z,12.33
2023-02-02T21:56:30.772Z,12.28
2023-02-02T22:01:38.296Z,12.26
2023-02-02T22:06:34.412Z,12.27
2023-02-02T22:11:30.145Z,12.33
2023-02-02T22:16:26.512Z,12.34
2023-02-02T22:21:21.221Z,12.31
2023-02-02T22:26:40.921Z,12.33
2023-02-02T22:31:39.528Z,12.38
2023-02-02T22:36:35.553Z,12.35
2023-02-02T22:41:28.142Z,12.35
2023-02-02T22:46:19.353Z,12.47
2023-02-02T22:51:13.925Z,12.36
2023-02-02T22:56:13.528Z,12.41
2023-02-02T23:01:06.677Z,12.32
2023-02-02T23:05:57.509Z,12.34
2023-02-02T23:10:50.780Z,12.35
2023-02-02T23:15:43.410Z,12.35
2023-02-02T23:20:38.426Z,12.31
2023-02-02T23:25:32.933Z,12.31
2023-02-02T23:30:27.171Z,12.27
2023-02-02T23:35:22.800Z,12.34
2023-02-02T23:40:15.482Z,12.43
2023-02-02T23:45:13.210Z,12.38
2023-02-02T23:50:11.857Z,12.32
2023-02-02T23:55:03.963Z,12.30
2023-02-02T23:59:54.522Z,12.29
